sensor_id;sensor_type;location;lat;lon;timestamp;P1;durP1;ratioP1;P2;durP2;ratioP2
13291;SDS011;6714;53.056;8.690;2023-05-21T00:01:50;6.53;;;3.00;;
13291;SDS011;6714;53.056;8.690;2023-05-21T00:04:32;3.40;;;3.00;;
13291;SDS011;6714;53.056;8.690;2023-05-21T00:07:15;4.90;;;3.37;;
13291;SDS011;6714;53.056;8.690;2023-05-21T00:09:57;3.30;;;3.00;;
13291;SDS011;6714;53.056;8.690;2023-05-21T00:12:41;4.27;;;3.27;;
13291;SDS011;6714;53.056;8.690;2023-05-21T00:15:23;3.63;;;2.70;;
13291;SDS011;6714;53.056;8.690;2023-05-21T00:18:05;3.70;;;3.30;;
13291;SDS011;6714;53.056;8.690;2023-05-21T00:20:47;3.57;;;3.10;;
13291;SDS011;6714;53.056;8.690;2023-05-21T00:23:30;3.83;;;3.10;;
13291;SDS011;6714;53.056;8.690;2023-05-21T00:26:13;3.17;;;2.90;;
13291;SDS011;6714;53.056;8.690;2023-05-21T00:28:56;3.40;;;3.10;;
13291;SDS011;6714;53.056;8.690;2023-05-21T00:31:38;3.13;;;2.80;;
13291;SDS011;6714;53.056;8.690;2023-05-21T00:34:20;3.53;;;2.93;;
13291;SDS011;6714;53.056;8.690;2023-05-21T00:37:03;5.67;;;2.73;;
13291;SDS011;6714;53.056;8.690;2023-05-21T00:39:45;3.10;;;2.80;;
13291;SDS011;6714;53.056;8.690;2023-05-21T00:42:27;2.73;;;2.53;;
13291;SDS011;6714;53.056;8.690;2023-05-21T00:45:11;3.80;;;3.10;;
13291;SDS011;6714;53.056;8.690;2023-05-21T00:47:53;3.37;;;3.00;;
13291;SDS011;6714;53.056;8.690;2023-05-21T00:50:36;4.10;;;2.90;;
13291;SDS011;6714;53.056;8.690;2023-05-21T00:53:19;3.07;;;2.63;;
13291;SDS011;6714;53.056;8.690;2023-05-21T00:56:02;4.03;;;3.10;;
13291;SDS011;6714;53.056;8.690;2023-05-21T00:58:44;3.23;;;2.93;;
13291;SDS011;6714;53.056;8.690;2023-05-21T01:01:28;3.87;;;3.17;;
13291;SDS011;6714;53.056;8.690;2023-05-21T01:04:12;3.07;;;2.77;;
13291;SDS011;6714;53.056;8.690;2023-05-21T01:06:55;3.70;;;3.00;;
13291;SDS011;6714;53.056;8.690;2023-05-21T01:09:38;4.30;;;2.70;;
13291;SDS011;6714;53.056;8.690;2023-05-21T01:12:20;3.63;;;2.70;;
13291;SDS011;6714;53.056;8.690;2023-05-21T01:15:05;2.47;;;2.27;;
13291;SDS011;6714;53.056;8.690;2023-05-21T01:17:49;4.13;;;3.30;;
13291;SDS011;6714;53.056;8.690;2023-05-21T01:20:32;3.67;;;2.67;;
13291;SDS011;6714;53.056;8.690;2023-05-21T01:23:15;3.53;;;2.63;;
13291;SDS011;6714;53.056;8.690;2023-05-21T01:25:58;4.23;;;2.40;;
13291;SDS011;6714;53.056;8.690;2023-05-21T01:28:40;3.10;;;2.80;;
13291;SDS011;6714;53.056;8.690;2023-05-21T01:31:24;3.57;;;2.80;;
13291;SDS011;6714;53.056;8.690;2023-05-21T01:34:07;4.57;;;2.70;;
13291;SDS011;6714;53.056;8.690;2023-05-21T01:36:54;2.63;;;2.43;;
13291;SDS011;6714;53.056;8.690;2023-05-21T01:39:38;6.37;;;2.87;;
13291;SDS011;6714;53.056;8.690;2023-05-21T01:42:24;3.80;;;3.07;;
13291;SDS011;6714;53.056;8.690;2023-05-21T01:45:06;2.50;;;2.30;;
13291;SDS011;6714;53.056;8.690;2023-05-21T01:47:50;3.30;;;2.93;;
13291;SDS011;6714;53.056;8.690;2023-05-21T01:50:35;3.60;;;2.87;;
13291;SDS011;6714;53.056;8.690;2023-05-21T01:53:18;4.73;;;3.40;;
13291;SDS011;6714;53.056;8.690;2023-05-21T01:56:01;6.00;;;2.97;;
13291;SDS011;6714;53.056;8.690;2023-05-21T01:58:44;3.10;;;2.80;;
13291;SDS011;6714;53.056;8.690;2023-05-21T02:01:26;8.10;;;3.70;;
13291;SDS011;6714;53.056;8.690;2023-05-21T02:04:09;3.20;;;2.77;;
13291;SDS011;6714;53.056;8.690;2023-05-21T02:06:51;5.70;;;3.70;;
13291;SDS011;6714;53.056;8.690;2023-05-21T02:09:34;3.43;;;2.70;;
13291;SDS011;6714;53.056;8.690;2023-05-21T02:12:18;4.67;;;3.20;;
13291;SDS011;6714;53.056;8.690;2023-05-21T02:15:00;4.60;;;2.80;;
13291;SDS011;6714;53.056;8.690;2023-05-21T02:17:43;3.93;;;2.77;;
13291;SDS011;6714;53.056;8.690;2023-05-21T02:20:25;3.10;;;2.80;;
13291;SDS011;6714;53.056;8.690;2023-05-21T02:23:07;3.90;;;2.70;;
13291;SDS011;6714;53.056;8.690;2023-05-21T02:25:49;2.97;;;2.60;;
13291;SDS011;6714;53.056;8.690;2023-05-21T02:28:33;3.30;;;3.00;;
13291;SDS011;6714;53.056;8.690;2023-05-21T02:31:16;3.43;;;2.80;;
13291;SDS011;6714;53.056;8.690;2023-05-21T02:33:58;3.27;;;2.73;;
13291;SDS011;6714;53.056;8.690;2023-05-21T02:36:40;5.07;;;2.77;;
13291;SDS011;6714;53.056;8.690;2023-05-21T02:39:22;6.43;;;3.23;;
13291;SDS011;6714;53.056;8.690;2023-05-21T02:42:05;4.30;;;3.30;;
13291;SDS011;6714;53.056;8.690;2023-05-21T02:44:48;2.63;;;2.43;;
13291;SDS011;6714;53.056;8.690;2023-05-21T02:47:31;3.30;;;3.00;;
13291;SDS011;6714;53.056;8.690;2023-05-21T02:50:13;5.13;;;2.90;;
13291;SDS011;6714;53.056;8.690;2023-05-21T02:52:55;2.87;;;2.10;;
13291;SDS011;6714;53.056;8.690;2023-05-21T02:55:38;4.03;;;2.47;;
13291;SDS011;6714;53.056;8.690;2023-05-21T02:58:21;4.43;;;3.03;;
13291;SDS011;6714;53.056;8.690;2023-05-21T03:01:05;2.93;;;2.60;;
13291;SDS011;6714;53.056;8.690;2023-05-21T03:03:47;2.40;;;2.20;;
13291;SDS011;6714;53.056;8.690;2023-05-21T03:06:30;7.80;;;3.40;;
13291;SDS011;6714;53.056;8.690;2023-05-21T03:09:13;6.43;;;4.10;;
13291;SDS011;6714;53.056;8.690;2023-05-21T03:11:55;5.03;;;3.20;;
13291;SDS011;6714;53.056;8.690;2023-05-21T03:14:38;6.87;;;3.40;;
13291;SDS011;6714;53.056;8.690;2023-05-21T03:17:23;3.57;;;3.00;;
13291;SDS011;6714;53.056;8.690;2023-05-21T03:20:05;4.70;;;2.73;;
13291;SDS011;6714;53.056;8.690;2023-05-21T03:22:48;4.83;;;2.53;;
13291;SDS011;6714;53.056;8.690;2023-05-21T03:25:31;2.93;;;2.73;;
13291;SDS011;6714;53.056;8.690;2023-05-21T03:28:15;4.07;;;2.70;;
13291;SDS011;6714;53.056;8.690;2023-05-21T03:30:57;3.17;;;2.63;;
13291;SDS011;6714;53.056;8.690;2023-05-21T03:33:41;3.47;;;2.40;;
13291;SDS011;6714;53.056;8.690;2023-05-21T03:36:23;4.30;;;2.77;;
13291;SDS011;6714;53.056;8.690;2023-05-21T03:39:06;3.43;;;2.47;;
13291;SDS011;6714;53.056;8.690;2023-05-21T03:41:48;2.40;;;2.20;;
13291;SDS011;6714;53.056;8.690;2023-05-21T03:44:30;3.43;;;2.80;;
13291;SDS011;6714;53.056;8.690;2023-05-21T03:47:12;2.50;;;2.30;;
13291;SDS011;6714;53.056;8.690;2023-05-21T03:49:56;4.27;;;2.60;;
13291;SDS011;6714;53.056;8.690;2023-05-21T03:52:38;3.60;;;2.63;;
13291;SDS011;6714;53.056;8.690;2023-05-21T03:55:20;4.00;;;2.50;;
13291;SDS011;6714;53.056;8.690;2023-05-21T03:58:02;3.80;;;2.57;;
13291;SDS011;6714;53.056;8.690;2023-05-21T04:00:45;3.10;;;2.80;;
13291;SDS011;6714;53.056;8.690;2023-05-21T04:03:27;3.83;;;2.73;;
13291;SDS011;6714;53.056;8.690;2023-05-21T04:06:11;3.90;;;3.00;;
13291;SDS011;6714;53.056;8.690;2023-05-21T04:08:53;3.00;;;2.70;;
13291;SDS011;6714;53.056;8.690;2023-05-21T04:11:35;3.77;;;2.50;;
13291;SDS011;6714;53.056;8.690;2023-05-21T04:14:17;3.00;;;2.70;;
13291;SDS011;6714;53.056;8.690;2023-05-21T04:17:00;3.57;;;2.97;;
13291;SDS011;6714;53.056;8.690;2023-05-21T04:22:34;3.43;;;3.10;;
13291;SDS011;6714;53.056;8.690;2023-05-21T04:25:16;3.17;;;2.37;;
13291;SDS011;6714;53.056;8.690;2023-05-21T04:27:59;3.23;;;2.40;;
13291;SDS011;6714;53.056;8.690;2023-05-21T04:30:42;3.27;;;2.67;;
13291;SDS011;6714;53.056;8.690;2023-05-21T04:33:25;5.23;;;2.90;;
13291;SDS011;6714;53.056;8.690;2023-05-21T04:36:07;5.40;;;3.17;;
13291;SDS011;6714;53.056;8.690;2023-05-21T04:38:51;2.40;;;2.20;;
13291;SDS011;6714;53.056;8.690;2023-05-21T04:41:34;3.40;;;2.50;;
13291;SDS011;6714;53.056;8.690;2023-05-21T04:44:17;4.73;;;3.03;;
13291;SDS011;6714;53.056;8.690;2023-05-21T04:46:59;2.13;;;1.90;;
13291;SDS011;6714;53.056;8.690;2023-05-21T04:49:41;3.77;;;3.00;;
13291;SDS011;6714;53.056;8.690;2023-05-21T04:52:24;2.23;;;2.03;;
13291;SDS011;6714;53.056;8.690;2023-05-21T04:55:08;2.77;;;2.47;;
13291;SDS011;6714;53.056;8.690;2023-05-21T04:57:50;3.70;;;2.33;;
13291;SDS011;6714;53.056;8.690;2023-05-21T05:00:32;3.70;;;2.83;;
13291;SDS011;6714;53.056;8.690;2023-05-21T05:03:16;4.90;;;2.60;;
13291;SDS011;6714;53.056;8.690;2023-05-21T05:05:58;4.87;;;3.20;;
13291;SDS011;6714;53.056;8.690;2023-05-21T05:08:43;3.20;;;2.63;;
13291;SDS011;6714;53.056;8.690;2023-05-21T05:11:27;5.83;;;3.67;;
13291;SDS011;6714;53.056;8.690;2023-05-21T05:14:09;3.07;;;2.20;;
13291;SDS011;6714;53.056;8.690;2023-05-21T05:16:51;4.43;;;3.00;;
13291;SDS011;6714;53.056;8.690;2023-05-21T05:19:39;4.73;;;3.10;;
13291;SDS011;6714;53.056;8.690;2023-05-21T05:22:21;3.33;;;2.40;;
13291;SDS011;6714;53.056;8.690;2023-05-21T05:25:04;2.57;;;2.37;;
13291;SDS011;6714;53.056;8.690;2023-05-21T05:27:48;3.70;;;3.10;;
13291;SDS011;6714;53.056;8.690;2023-05-21T05:30:30;4.13;;;2.70;;
13291;SDS011;6714;53.056;8.690;2023-05-21T05:33:12;3.67;;;2.57;;
13291;SDS011;6714;53.056;8.690;2023-05-21T05:35:54;4.57;;;2.90;;
13291;SDS011;6714;53.056;8.690;2023-05-21T05:38:36;3.10;;;2.80;;
13291;SDS011;6714;53.056;8.690;2023-05-21T05:41:19;3.17;;;2.67;;
13291;SDS011;6714;53.056;8.690;2023-05-21T05:44:03;2.80;;;2.57;;
13291;SDS011;6714;53.056;8.690;2023-05-21T05:46:45;3.37;;;2.80;;
13291;SDS011;6714;53.056;8.690;2023-05-21T05:49:27;2.93;;;2.33;;
13291;SDS011;6714;53.056;8.690;2023-05-21T05:52:09;4.37;;;3.50;;
13291;SDS011;6714;53.056;8.690;2023-05-21T05:54:51;4.80;;;2.87;;
13291;SDS011;6714;53.056;8.690;2023-05-21T05:57:34;4.27;;;2.67;;
13291;SDS011;6714;53.056;8.690;2023-05-21T06:00:17;2.73;;;2.50;;
13291;SDS011;6714;53.056;8.690;2023-05-21T06:02:59;4.40;;;3.00;;
13291;SDS011;6714;53.056;8.690;2023-05-21T06:05:42;4.17;;;3.40;;
13291;SDS011;6714;53.056;8.690;2023-05-21T06:08:24;6.13;;;3.83;;
13291;SDS011;6714;53.056;8.690;2023-05-21T06:11:06;4.30;;;3.03;;
13291;SDS011;6714;53.056;8.690;2023-05-21T06:13:48;5.37;;;3.80;;
13291;SDS011;6714;53.056;8.690;2023-05-21T06:16:32;4.70;;;2.77;;
13291;SDS011;6714;53.056;8.690;2023-05-21T06:19:16;3.60;;;2.97;;
13291;SDS011;6714;53.056;8.690;2023-05-21T06:21:58;6.27;;;4.23;;
13291;SDS011;6714;53.056;8.690;2023-05-21T06:24:40;3.27;;;2.40;;
13291;SDS011;6714;53.056;8.690;2023-05-21T06:27:22;3.40;;;2.60;;
13291;SDS011;6714;53.056;8.690;2023-05-21T06:30:05;4.07;;;2.77;;
13291;SDS011;6714;53.056;8.690;2023-05-21T06:32:49;3.80;;;3.00;;
13291;SDS011;6714;53.056;8.690;2023-05-21T06:35:31;3.33;;;2.90;;
13291;SDS011;6714;53.056;8.690;2023-05-21T06:38:15;3.93;;;2.77;;
13291;SDS011;6714;53.056;8.690;2023-05-21T06:40:58;6.70;;;4.13;;
13291;SDS011;6714;53.056;8.690;2023-05-21T06:43:40;5.87;;;3.40;;
13291;SDS011;6714;53.056;8.690;2023-05-21T06:46:22;3.60;;;3.30;;
13291;SDS011;6714;53.056;8.690;2023-05-21T06:49:06;3.73;;;3.40;;
13291;SDS011;6714;53.056;8.690;2023-05-21T06:51:48;3.43;;;3.03;;
13291;SDS011;6714;53.056;8.690;2023-05-21T06:54:30;2.90;;;2.63;;
13291;SDS011;6714;53.056;8.690;2023-05-21T06:57:13;4.77;;;3.90;;
13291;SDS011;6714;53.056;8.690;2023-05-21T06:59:56;3.50;;;3.17;;
13291;SDS011;6714;53.056;8.690;2023-05-21T07:02:38;3.67;;;3.37;;
13291;SDS011;6714;53.056;8.690;2023-05-21T07:05:21;3.93;;;3.07;;
13291;SDS011;6714;53.056;8.690;2023-05-21T07:08:04;5.33;;;4.20;;
13291;SDS011;6714;53.056;8.690;2023-05-21T07:10:46;5.80;;;4.57;;
13291;SDS011;6714;53.056;8.690;2023-05-21T07:13:29;5.53;;;4.07;;
13291;SDS011;6714;53.056;8.690;2023-05-21T07:16:11;5.47;;;4.87;;
13291;SDS011;6714;53.056;8.690;2023-05-21T07:18:53;4.07;;;3.37;;
13291;SDS011;6714;53.056;8.690;2023-05-21T07:21:37;6.90;;;6.20;;
13291;SDS011;6714;53.056;8.690;2023-05-21T07:24:19;7.93;;;5.13;;
13291;SDS011;6714;53.056;8.690;2023-05-21T07:27:01;5.03;;;4.60;;
13291;SDS011;6714;53.056;8.690;2023-05-21T07:29:45;6.93;;;5.20;;
13291;SDS011;6714;53.056;8.690;2023-05-21T07:32:27;5.87;;;4.50;;
13291;SDS011;6714;53.056;8.690;2023-05-21T07:35:09;5.33;;;4.33;;
13291;SDS011;6714;53.056;8.690;2023-05-21T07:37:53;6.23;;;5.63;;
13291;SDS011;6714;53.056;8.690;2023-05-21T07:40:35;5.27;;;4.47;;
13291;SDS011;6714;53.056;8.690;2023-05-21T07:43:17;6.30;;;4.83;;
13291;SDS011;6714;53.056;8.690;2023-05-21T07:46:00;5.20;;;4.50;;
13291;SDS011;6714;53.056;8.690;2023-05-21T07:48:42;4.93;;;4.33;;
13291;SDS011;6714;53.056;8.690;2023-05-21T07:51:25;6.20;;;5.60;;
13291;SDS011;6714;53.056;8.690;2023-05-21T07:54:09;4.60;;;4.20;;
13291;SDS011;6714;53.056;8.690;2023-05-21T07:56:51;4.67;;;4.13;;
13291;SDS011;6714;53.056;8.690;2023-05-21T07:59:33;6.33;;;4.90;;
13291;SDS011;6714;53.056;8.690;2023-05-21T08:02:15;4.90;;;3.87;;
13291;SDS011;6714;53.056;8.690;2023-05-21T08:04:57;6.20;;;5.53;;
13291;SDS011;6714;53.056;8.690;2023-05-21T08:07:41;6.07;;;4.80;;
13291;SDS011;6714;53.056;8.690;2023-05-21T08:10:25;7.83;;;6.77;;
13291;SDS011;6714;53.056;8.690;2023-05-21T08:13:07;8.30;;;7.37;;
13291;SDS011;6714;53.056;8.690;2023-05-21T08:15:50;7.57;;;6.37;;
13291;SDS011;6714;53.056;8.690;2023-05-21T08:18:33;6.80;;;6.10;;
13291;SDS011;6714;53.056;8.690;2023-05-21T08:21:15;7.40;;;6.50;;
13291;SDS011;6714;53.056;8.690;2023-05-21T08:23:57;5.23;;;4.83;;
13291;SDS011;6714;53.056;8.690;2023-05-21T08:26:41;9.87;;;7.63;;
13291;SDS011;6714;53.056;8.690;2023-05-21T08:29:24;9.57;;;8.23;;
13291;SDS011;6714;53.056;8.690;2023-05-21T08:32:06;6.37;;;5.00;;
13291;SDS011;6714;53.056;8.690;2023-05-21T08:34:49;8.40;;;7.40;;
13291;SDS011;6714;53.056;8.690;2023-05-21T08:37:32;6.70;;;6.03;;
13291;SDS011;6714;53.056;8.690;2023-05-21T08:40:14;4.50;;;4.10;;
13291;SDS011;6714;53.056;8.690;2023-05-21T08:42:57;6.40;;;5.80;;
13291;SDS011;6714;53.056;8.690;2023-05-21T08:45:40;7.07;;;6.37;;
13291;SDS011;6714;53.056;8.690;2023-05-21T08:48:23;9.03;;;7.43;;
13291;SDS011;6714;53.056;8.690;2023-05-21T08:51:05;8.00;;;7.13;;
13291;SDS011;6714;53.056;8.690;2023-05-21T08:53:48;10.50;;;9.27;;
13291;SDS011;6714;53.056;8.690;2023-05-21T08:56:30;7.60;;;6.80;;
13291;SDS011;6714;53.056;8.690;2023-05-21T08:59:14;8.33;;;7.53;;
13291;SDS011;6714;53.056;8.690;2023-05-21T09:01:57;8.57;;;7.70;;
13291;SDS011;6714;53.056;8.690;2023-05-21T09:04:41;8.63;;;7.73;;
13291;SDS011;6714;53.056;8.690;2023-05-21T09:07:28;7.23;;;6.53;;
13291;SDS011;6714;53.056;8.690;2023-05-21T09:10:11;8.60;;;7.77;;
13291;SDS011;6714;53.056;8.690;2023-05-21T09:12:53;8.50;;;6.97;;
13291;SDS011;6714;53.056;8.690;2023-05-21T09:15:37;8.43;;;7.60;;
13291;SDS011;6714;53.056;8.690;2023-05-21T09:18:20;8.07;;;7.30;;
13291;SDS011;6714;53.056;8.690;2023-05-21T09:24:00;11.37;;;9.73;;
13291;SDS011;6714;53.056;8.690;2023-05-21T09:26:42;8.07;;;7.37;;
13291;SDS011;6714;53.056;8.690;2023-05-21T09:29:25;7.37;;;6.77;;
13291;SDS011;6714;53.056;8.690;2023-05-21T09:32:09;7.80;;;7.10;;
13291;SDS011;6714;53.056;8.690;2023-05-21T09:34:52;8.83;;;8.00;;
13291;SDS011;6714;53.056;8.690;2023-05-21T09:37:37;9.03;;;8.10;;
13291;SDS011;6714;53.056;8.690;2023-05-21T09:40:20;8.47;;;7.67;;
13291;SDS011;6714;53.056;8.690;2023-05-21T09:43:02;8.13;;;7.33;;
13291;SDS011;6714;53.056;8.690;2023-05-21T09:45:49;6.80;;;6.20;;
13291;SDS011;6714;53.056;8.690;2023-05-21T09:48:34;9.02;;;8.13;;
13291;SDS011;6714;53.056;8.690;2023-05-21T09:51:18;9.38;;;8.43;;
13291;SDS011;6714;53.056;8.690;2023-05-21T09:54:00;8.52;;;7.65;;
13291;SDS011;6714;53.056;8.690;2023-05-21T09:56:42;7.68;;;6.93;;
13291;SDS011;6714;53.056;8.690;2023-05-21T09:59:29;6.35;;;5.85;;
13291;SDS011;6714;53.056;8.690;2023-05-21T10:02:16;6.50;;;5.90;;
13291;SDS011;6714;53.056;8.690;2023-05-21T10:05:00;8.45;;;7.70;;
13291;SDS011;6714;53.056;8.690;2023-05-21T10:07:44;11.27;;;10.13;;
13291;SDS011;6714;53.056;8.690;2023-05-21T10:10:28;6.50;;;5.90;;
13291;SDS011;6714;53.056;8.690;2023-05-21T10:13:11;8.10;;;7.40;;
13291;SDS011;6714;53.056;8.690;2023-05-21T10:15:54;10.15;;;9.25;;
13291;SDS011;6714;53.056;8.690;2023-05-21T10:18:40;9.20;;;8.30;;
13291;SDS011;6714;53.056;8.690;2023-05-21T10:21:24;7.78;;;7.10;;
13291;SDS011;6714;53.056;8.690;2023-05-21T10:24:07;7.35;;;6.65;;
13291;SDS011;6714;53.056;8.690;2023-05-21T10:26:50;7.70;;;7.10;;
13291;SDS011;6714;53.056;8.690;2023-05-21T10:29:32;6.70;;;6.13;;
13291;SDS011;6714;53.056;8.690;2023-05-21T10:32:14;7.07;;;6.38;;
13291;SDS011;6714;53.056;8.690;2023-05-21T10:34:57;8.15;;;7.40;;
13291;SDS011;6714;53.056;8.690;2023-05-21T10:37:41;7.25;;;6.45;;
13291;SDS011;6714;53.056;8.690;2023-05-21T10:40:24;6.72;;;6.22;;
13291;SDS011;6714;53.056;8.690;2023-05-21T10:43:16;6.78;;;6.28;;
13291;SDS011;6714;53.056;8.690;2023-05-21T10:46:14;6.25;;;5.75;;
13291;SDS011;6714;53.056;8.690;2023-05-21T10:48:59;6.65;;;6.05;;
13291;SDS011;6714;53.056;8.690;2023-05-21T10:51:44;8.90;;;8.07;;
13291;SDS011;6714;53.056;8.690;2023-05-21T10:54:45;7.22;;;6.53;;
13291;SDS011;6714;53.056;8.690;2023-05-21T10:57:36;7.28;;;6.43;;
13291;SDS011;6714;53.056;8.690;2023-05-21T11:00:21;8.00;;;7.25;;
13291;SDS011;6714;53.056;8.690;2023-05-21T11:03:05;10.60;;;9.70;;
13291;SDS011;6714;53.056;8.690;2023-05-21T11:05:52;7.38;;;6.78;;
13291;SDS011;6714;53.056;8.690;2023-05-21T11:08:34;8.88;;;7.97;;
13291;SDS011;6714;53.056;8.690;2023-05-21T11:14:35;8.45;;;7.65;;
13291;SDS011;6714;53.056;8.690;2023-05-21T11:17:34;7.75;;;7.05;;
13291;SDS011;6714;53.056;8.690;2023-05-21T11:20:17;8.20;;;7.50;;
13291;SDS011;6714;53.056;8.690;2023-05-21T11:23:02;7.60;;;6.90;;
13291;SDS011;6714;53.056;8.690;2023-05-21T11:25:47;9.82;;;9.02;;
13291;SDS011;6714;53.056;8.690;2023-05-21T11:28:32;7.80;;;7.10;;
13291;SDS011;6714;53.056;8.690;2023-05-21T11:31:22;8.60;;;7.90;;
13291;SDS011;6714;53.056;8.690;2023-05-21T11:34:11;8.63;;;7.82;;
13291;SDS011;6714;53.056;8.690;2023-05-21T11:40:16;8.60;;;7.90;;
13291;SDS011;6714;53.056;8.690;2023-05-21T11:42:58;8.65;;;7.95;;
13291;SDS011;6714;53.056;8.690;2023-05-21T11:45:40;8.48;;;7.75;;
13291;SDS011;6714;53.056;8.690;2023-05-21T11:48:27;7.20;;;6.60;;
13291;SDS011;6714;53.056;8.690;2023-05-21T11:51:12;7.53;;;6.93;;
13291;SDS011;6714;53.056;8.690;2023-05-21T11:53:54;8.40;;;7.55;;
13291;SDS011;6714;53.056;8.690;2023-05-21T11:56:38;11.15;;;10.13;;
13291;SDS011;6714;53.056;8.690;2023-05-21T11:59:21;7.68;;;7.07;;
13291;SDS011;6714;53.056;8.690;2023-05-21T12:02:03;9.70;;;8.73;;
13291;SDS011;6714;53.056;8.690;2023-05-21T12:04:47;8.05;;;7.45;;
13291;SDS011;6714;53.056;8.690;2023-05-21T12:07:29;7.80;;;7.20;;
13291;SDS011;6714;53.056;8.690;2023-05-21T12:10:12;8.48;;;7.78;;
13291;SDS011;6714;53.056;8.690;2023-05-21T12:12:54;7.68;;;7.07;;
13291;SDS011;6714;53.056;8.690;2023-05-21T12:15:36;8.73;;;8.02;;
13291;SDS011;6714;53.056;8.690;2023-05-21T12:18:19;9.98;;;9.07;;
13291;SDS011;6714;53.056;8.690;2023-05-21T12:21:03;7.93;;;7.13;;
13291;SDS011;6714;53.056;8.690;2023-05-21T12:23:45;8.40;;;7.70;;
13291;SDS011;6714;53.056;8.690;2023-05-21T12:26:28;7.68;;;7.18;;
13291;SDS011;6714;53.056;8.690;2023-05-21T12:29:12;8.27;;;7.65;;
13291;SDS011;6714;53.056;8.690;2023-05-21T12:31:57;8.32;;;7.68;;
13291;SDS011;6714;53.056;8.690;2023-05-21T12:34:40;8.70;;;7.97;;
13291;SDS011;6714;53.056;8.690;2023-05-21T12:37:25;9.23;;;8.52;;
13291;SDS011;6714;53.056;8.690;2023-05-21T12:40:10;8.80;;;8.10;;
13291;SDS011;6714;53.056;8.690;2023-05-21T12:42:53;7.68;;;6.97;;
13291;SDS011;6714;53.056;8.690;2023-05-21T12:45:37;8.75;;;8.02;;
13291;SDS011;6714;53.056;8.690;2023-05-21T12:48:19;8.30;;;7.70;;
13291;SDS011;6714;53.056;8.690;2023-05-21T12:51:01;8.80;;;8.10;;
13291;SDS011;6714;53.056;8.690;2023-05-21T12:53:45;9.02;;;8.32;;
13291;SDS011;6714;53.056;8.690;2023-05-21T12:56:27;8.35;;;7.75;;
13291;SDS011;6714;53.056;8.690;2023-05-21T12:59:24;7.95;;;7.35;;
13291;SDS011;6714;53.056;8.690;2023-05-21T13:02:06;8.98;;;8.18;;
13291;SDS011;6714;53.056;8.690;2023-05-21T13:04:52;9.55;;;8.68;;
13291;SDS011;6714;53.056;8.690;2023-05-21T13:07:36;8.07;;;7.40;;
13291;SDS011;6714;53.056;8.690;2023-05-21T13:10:20;8.57;;;7.95;;
13291;SDS011;6714;53.056;8.690;2023-05-21T13:13:02;7.88;;;7.28;;
13291;SDS011;6714;53.056;8.690;2023-05-21T13:15:44;8.75;;;8.07;;
13291;SDS011;6714;53.056;8.690;2023-05-21T13:18:27;9.43;;;8.73;;
13291;SDS011;6714;53.056;8.690;2023-05-21T13:21:09;9.63;;;8.85;;
13291;SDS011;6714;53.056;8.690;2023-05-21T13:23:51;8.02;;;7.43;;
13291;SDS011;6714;53.056;8.690;2023-05-21T13:26:34;8.02;;;7.43;;
13291;SDS011;6714;53.056;8.690;2023-05-21T13:29:17;8.43;;;7.72;;
13291;SDS011;6714;53.056;8.690;2023-05-21T13:31:59;8.43;;;7.80;;
13291;SDS011;6714;53.056;8.690;2023-05-21T13:34:41;8.45;;;7.82;;
13291;SDS011;6714;53.056;8.690;2023-05-21T13:37:23;8.40;;;7.80;;
13291;SDS011;6714;53.056;8.690;2023-05-21T13:40:06;8.43;;;7.80;;
13291;SDS011;6714;53.056;8.690;2023-05-21T13:42:51;9.27;;;8.57;;
13291;SDS011;6714;53.056;8.690;2023-05-21T13:45:33;8.48;;;7.78;;
13291;SDS011;6714;53.056;8.690;2023-05-21T13:48:15;8.65;;;7.95;;
13291;SDS011;6714;53.056;8.690;2023-05-21T13:50:57;9.18;;;8.40;;
13291;SDS011;6714;53.056;8.690;2023-05-21T13:53:40;9.18;;;8.48;;
13291;SDS011;6714;53.056;8.690;2023-05-21T13:56:23;8.93;;;8.23;;
13291;SDS011;6714;53.056;8.690;2023-05-21T13:59:07;10.32;;;9.50;;
13291;SDS011;6714;53.056;8.690;2023-05-21T14:01:49;8.60;;;7.90;;
13291;SDS011;6714;53.056;8.690;2023-05-21T14:04:31;8.55;;;7.95;;
13291;SDS011;6714;53.056;8.690;2023-05-21T14:07:17;9.38;;;8.68;;
13291;SDS011;6714;53.056;8.690;2023-05-21T14:09:59;8.68;;;8.07;;
13291;SDS011;6714;53.056;8.690;2023-05-21T14:12:41;9.02;;;8.32;;
13291;SDS011;6714;53.056;8.690;2023-05-21T14:15:26;9.98;;;9.18;;
13291;SDS011;6714;53.056;8.690;2023-05-21T14:18:08;9.45;;;8.65;;
13291;SDS011;6714;53.056;8.690;2023-05-21T14:20:51;8.13;;;7.53;;
13291;SDS011;6714;53.056;8.690;2023-05-21T14:23:34;9.13;;;8.43;;
13291;SDS011;6714;53.056;8.690;2023-05-21T14:26:16;9.10;;;8.50;;
13291;SDS011;6714;53.056;8.690;2023-05-21T14:28:58;8.38;;;7.78;;
13291;SDS011;6714;53.056;8.690;2023-05-21T14:31:42;8.93;;;8.32;;
13291;SDS011;6714;53.056;8.690;2023-05-21T14:34:25;9.63;;;8.88;;
13291;SDS011;6714;53.056;8.690;2023-05-21T14:37:07;9.35;;;8.65;;
13291;SDS011;6714;53.056;8.690;2023-05-21T14:39:49;8.88;;;8.18;;
13291;SDS011;6714;53.056;8.690;2023-05-21T14:42:31;8.40;;;7.80;;
13291;SDS011;6714;53.056;8.690;2023-05-21T14:45:14;9.50;;;8.70;;
13291;SDS011;6714;53.056;8.690;2023-05-21T14:47:57;8.57;;;7.78;;
13291;SDS011;6714;53.056;8.690;2023-05-21T14:50:39;8.65;;;7.95;;
13291;SDS011;6714;53.056;8.690;2023-05-21T14:53:22;9.15;;;8.45;;
13291;SDS011;6714;53.056;8.690;2023-05-21T14:56:04;8.90;;;8.27;;
13291;SDS011;6714;53.056;8.690;2023-05-21T14:58:46;8.55;;;7.95;;
13291;SDS011;6714;53.056;8.690;2023-05-21T15:01:28;8.98;;;8.32;;
13291;SDS011;6714;53.056;8.690;2023-05-21T15:04:12;9.30;;;8.60;;
13291;SDS011;6714;53.056;8.690;2023-05-21T15:06:54;8.30;;;7.70;;
13291;SDS011;6714;53.056;8.690;2023-05-21T15:09:36;9.13;;;8.50;;
13291;SDS011;6714;53.056;8.690;2023-05-21T15:12:18;8.48;;;7.78;;
13291;SDS011;6714;53.056;8.690;2023-05-21T15:15:01;9.00;;;8.30;;
13291;SDS011;6714;53.056;8.690;2023-05-21T15:17:43;8.77;;;8.00;;
13291;SDS011;6714;53.056;8.690;2023-05-21T15:20:26;8.52;;;7.88;;
13291;SDS011;6714;53.056;8.690;2023-05-21T15:23:09;8.02;;;7.53;;
13291;SDS011;6714;53.056;8.690;2023-05-21T15:25:51;8.15;;;7.55;;
13291;SDS011;6714;53.056;8.690;2023-05-21T15:28:33;8.18;;;7.57;;
13291;SDS011;6714;53.056;8.690;2023-05-21T15:31:15;8.15;;;7.55;;
13291;SDS011;6714;53.056;8.690;2023-05-21T15:34:00;8.43;;;7.82;;
13291;SDS011;6714;53.056;8.690;2023-05-21T15:36:43;8.63;;;7.95;;
13291;SDS011;6714;53.056;8.690;2023-05-21T15:39:26;8.85;;;8.05;;
13291;SDS011;6714;53.056;8.690;2023-05-21T15:42:08;9.05;;;8.18;;
13291;SDS011;6714;53.056;8.690;2023-05-21T15:44:50;8.65;;;7.90;;
13291;SDS011;6714;53.056;8.690;2023-05-21T15:47:32;8.02;;;7.32;;
13291;SDS011;6714;53.056;8.690;2023-05-21T15:50:15;9.10;;;8.40;;
13291;SDS011;6714;53.056;8.690;2023-05-21T15:52:58;8.20;;;7.65;;
13291;SDS011;6714;53.056;8.690;2023-05-21T15:55:40;7.65;;;7.13;;
13291;SDS011;6714;53.056;8.690;2023-05-21T15:58:23;8.70;;;8.10;;
13291;SDS011;6714;53.056;8.690;2023-05-21T16:01:06;8.10;;;7.50;;
13291;SDS011;6714;53.056;8.690;2023-05-21T16:03:48;8.23;;;7.63;;
13291;SDS011;6714;53.056;8.690;2023-05-21T16:06:30;8.68;;;8.07;;
13291;SDS011;6714;53.056;8.690;2023-05-21T16:09:14;8.25;;;7.65;;
13291;SDS011;6714;53.056;8.690;2023-05-21T16:11:56;8.68;;;8.02;;
13291;SDS011;6714;53.056;8.690;2023-05-21T16:14:38;8.25;;;7.60;;
13291;SDS011;6714;53.056;8.690;2023-05-21T16:17:20;8.60;;;7.90;;
13291;SDS011;6714;53.056;8.690;2023-05-21T16:20:03;8.80;;;8.10;;
13291;SDS011;6714;53.056;8.690;2023-05-21T16:22:46;9.02;;;8.32;;
13291;SDS011;6714;53.056;8.690;2023-05-21T16:25:30;9.25;;;8.45;;
13291;SDS011;6714;53.056;8.690;2023-05-21T16:28:12;8.32;;;7.72;;
13291;SDS011;6714;53.056;8.690;2023-05-21T16:30:54;8.30;;;7.70;;
13291;SDS011;6714;53.056;8.690;2023-05-21T16:33:37;9.02;;;8.35;;
13291;SDS011;6714;53.056;8.690;2023-05-21T16:36:21;8.00;;;7.40;;
13291;SDS011;6714;53.056;8.690;2023-05-21T16:39:03;8.23;;;7.63;;
13291;SDS011;6714;53.056;8.690;2023-05-21T16:41:47;8.50;;;7.90;;
13291;SDS011;6714;53.056;8.690;2023-05-21T16:44:30;8.90;;;8.30;;
13291;SDS011;6714;53.056;8.690;2023-05-21T16:47:12;9.13;;;8.43;;
13291;SDS011;6714;53.056;8.690;2023-05-21T16:49:55;8.95;;;8.27;;